Time;durP1;ratioP1;P1;durP2;ratioP2;P2;SDS_P1;SDS_P2;PMS_P1;PMS_P2;Temp;Humidity;BMP_temperature;BMP_pressure;BME280_temperature;BME280_humidity;BME280_pressure;Samples;Min_cycle;Max_cycle;Signal;HPM_P1;HPM_P2
2022/10/11 00:00:17;;;;;;;1999.90;999.90;;;16.10;99.90;;;;;;5054554;28;20029;-79
2022/10/11 00:02:42;;;;;;;1999.90;999.90;;;16.10;99.90;;;;;;5054320;28;20035;-79
2022/10/11 00:05:09;;;;;;;1999.90;999.90;;;16.10;99.90;;;;;;5053893;28;20104;-78
2022/10/11 00:07:36;;;;;;;1999.90;999.90;;;16.10;99.90;;;;;;5054180;28;20108;-79
2022/10/11 00:10:04;;;;;;;1999.90;999.90;;;16.10;99.90;;;;;;5043370;28;20025;-72
2022/10/11 00:12:30;;;;;;;1999.90;999.90;;;16.10;99.90;;;;;;5033511;28;20087;-79
2022/10/11 00:14:55;;;;;;;1999.90;999.90;;;16.10;99.90;;;;;;5034013;28;20076;-72
2022/10/11 00:17:21;;;;;;;1999.90;999.90;;;16.00;99.90;;;;;;5033558;28;20033;-72
2022/10/11 00:19:47;;;;;;;1999.90;999.90;;;16.00;99.90;;;;;;5054045;28;20025;-79
2022/10/11 00:22:13;;;;;;;1999.90;999.90;;;16.00;99.90;;;;;;5053780;28;20057;-78
2022/10/11 00:24:38;;;;;;;1999.90;999.90;;;16.00;99.90;;;;;;5053649;28;20029;-78
2022/10/11 00:27:04;;;;;;;1999.90;999.90;;;16.00;99.90;;;;;;5052856;28;20021;-79
2022/10/11 00:29:30;;;;;;;1999.90;999.90;;;16.00;99.90;;;;;;5054034;28;20216;-74
2022/10/11 00:31:55;;;;;;;1999.90;999.90;;;16.00;99.90;;;;;;5053775;28;20037;-79
2022/10/11 00:34:21;;;;;;;1999.90;999.90;;;16.00;99.90;;;;;;5053119;28;20056;-79
2022/10/11 00:36:47;;;;;;;1999.90;999.90;;;16.00;99.90;;;;;;5053507;28;20025;-72
2022/10/11 00:39:13;;;;;;;1999.90;999.90;;;15.90;99.90;;;;;;5053456;28;20480;-72
2022/10/11 00:41:39;;;;;;;1999.90;999.90;;;15.90;99.90;;;;;;5053723;28;20021;-75
2022/10/11 00:44:14;;;;;;;1999.90;999.90;;;15.90;99.90;;;;;;5053985;28;20400;-72
2022/10/11 00:46:43;;;;;;;1999.90;999.90;;;15.90;99.90;;;;;;5053102;28;20499;-72
2022/10/11 00:49:18;;;;;;;1999.90;999.90;;;15.90;99.90;;;;;;5053256;28;20424;-79
2022/10/11 00:51:53;;;;;;;1999.90;999.90;;;15.90;99.90;;;;;;5053723;28;20120;-72
2022/10/11 00:54:24;;;;;;;1999.90;999.90;;;15.90;99.90;;;;;;5053460;28;20633;-81
2022/10/11 00:56:57;;;;;;;1999.90;999.90;;;15.90;99.90;;;;;;5053140;28;20013;-81
2022/10/11 00:59:28;;;;;;;1999.90;999.90;;;15.90;99.90;;;;;;5051856;28;20056;-81
2022/10/11 01:01:54;;;;;;;1999.90;999.90;;;15.90;99.90;;;;;;5051966;28;20024;-81
2022/10/11 01:04:21;;;;;;;1999.90;999.90;;;15.80;99.90;;;;;;5053085;28;20586;-81
2022/10/11 01:06:48;;;;;;;1999.90;999.90;;;15.80;99.90;;;;;;5052643;28;20017;-81
2022/10/11 01:09:14;;;;;;;1999.90;999.90;;;15.80;99.90;;;;;;5048847;28;20036;-81
2022/10/11 01:11:42;;;;;;;1999.90;999.90;;;15.80;99.90;;;;;;5032913;28;20029;-73
2022/10/11 01:14:35;;;;;;;1999.90;999.90;;;15.80;99.90;;;;;;5032891;28;20048;-81
2022/10/11 01:17:16;;;;;;;1999.90;999.90;;;15.80;99.90;;;;;;5032366;28;20029;-81
2022/10/11 01:20:06;;;;;;;1999.90;999.90;;;15.80;99.90;;;;;;5052021;28;20068;-81
2022/10/11 01:22:45;;;;;;;1999.90;999.90;;;15.80;99.90;;;;;;5053033;28;20021;-81
2022/10/11 01:25:14;;;;;;;1999.90;999.90;;;15.80;99.90;;;;;;5051115;28;20029;-80
2022/10/11 01:27:46;;;;;;;1999.90;999.90;;;15.80;99.90;;;;;;5052972;28;20021;-81
2022/10/11 01:30:26;;;;;;;1999.90;999.90;;;15.80;99.90;;;;;;5052883;28;20055;-81
2022/10/11 01:33:04;;;;;;;1999.90;999.90;;;15.80;99.90;;;;;;5052596;28;20024;-81
2022/10/11 01:35:45;;;;;;;1999.90;999.90;;;15.80;99.90;;;;;;5051924;28;20091;-81
2022/10/11 01:38:33;;;;;;;1999.90;999.90;;;15.80;99.90;;;;;;5052150;28;20013;-81
2022/10/11 01:41:22;;;;;;;1999.90;999.90;;;15.80;99.90;;;;;;5032554;28;20032;-73
2022/10/11 01:43:50;;;;;;;1999.90;999.90;;;15.80;99.90;;;;;;5032637;28;20041;-81
2022/10/11 01:46:18;;;;;;;1999.90;999.90;;;15.80;99.90;;;;;;5032421;28;20033;-81
2022/10/11 01:48:53;;;;;;;1999.90;999.90;;;15.70;99.90;;;;;;5032102;28;20029;-81
2022/10/11 01:51:23;;;;;;;1999.90;999.90;;;15.70;99.90;;;;;;5032137;28;20029;-73
2022/10/11 01:54:10;;;;;;;1999.90;999.90;;;15.70;99.90;;;;;;5032499;28;20072;-81
2022/10/11 01:56:58;;;;;;;1999.90;999.90;;;15.70;99.90;;;;;;5032249;28;20485;-80
2022/10/11 01:59:50;;;;;;;1999.90;999.90;;;15.70;99.90;;;;;;5032409;28;20385;-72
2022/10/11 02:02:54;;;;;;;1999.90;999.90;;;15.70;99.90;;;;;;5032383;28;20476;-81
2022/10/11 02:05:45;;;;;;;1999.90;999.90;;;15.70;99.90;;;;;;5029272;28;20033;-81
2022/10/11 02:08:21;;;;;;;1999.90;999.90;;;15.70;99.90;;;;;;5030204;28;20029;-81
2022/10/11 02:10:51;;;;;;;1999.90;999.90;;;15.60;99.90;;;;;;5033786;28;20504;-81
2022/10/11 02:13:26;;;;;;;1999.90;999.90;;;15.60;99.90;;;;;;5045210;28;20041;-81
2022/10/11 02:15:54;;;;;;;1999.90;999.90;;;15.70;99.90;;;;;;5051163;28;20450;-81
2022/10/11 02:18:25;;;;;;;1999.90;999.90;;;15.70;99.90;;;;;;5051995;28;20087;-81
2022/10/11 02:20:52;;;;;;;1999.90;999.90;;;15.60;99.90;;;;;;5051280;28;20017;-81
2022/10/11 02:23:41;;;;;;;1999.90;999.90;;;15.70;99.90;;;;;;5051899;28;20032;-80
2022/10/11 02:26:10;;;;;;;1999.90;999.90;;;15.60;99.90;;;;;;5051941;28;20021;-81
2022/10/11 02:28:38;;;;;;;1999.90;999.90;;;15.60;99.90;;;;;;5051762;28;20396;-73
2022/10/11 02:31:05;;;;;;;1999.90;999.90;;;15.60;99.90;;;;;;5051712;28;20530;-81
2022/10/11 02:33:46;;;;;;;1999.90;999.90;;;15.60;99.90;;;;;;5052033;28;20021;-81
2022/10/11 02:36:43;;;;;;;1999.90;999.90;;;15.60;99.90;;;;;;5051889;28;20029;-80
2022/10/11 02:39:20;;;;;;;1999.90;999.90;;;15.60;99.90;;;;;;5046103;28;20030;-79
2022/10/11 02:41:48;;;;;;;1999.90;999.90;;;15.60;99.90;;;;;;5031880;28;20017;-80
2022/10/11 02:44:32;;;;;;;1999.90;999.90;;;15.60;99.90;;;;;;5032150;28;20124;-80
2022/10/11 02:46:59;;;;;;;1999.90;999.90;;;15.60;99.90;;;;;;5031592;28;20039;-81
2022/10/11 02:49:27;;;;;;;1999.90;999.90;;;15.60;99.90;;;;;;5031473;28;20052;-81
2022/10/11 02:51:57;;;;;;;1999.90;999.90;;;15.50;99.90;;;;;;5035296;28;20030;-81
2022/10/11 02:54:26;;;;;;;1999.90;999.90;;;15.60;99.90;;;;;;5035817;28;20029;-72
2022/10/11 02:56:52;;;;;;;1999.90;999.90;;;15.50;99.90;;;;;;5035345;28;20034;-79
2022/10/11 02:59:17;;;;;;;1999.90;999.90;;;15.50;99.90;;;;;;5035241;28;20079;-81
2022/10/11 03:01:43;;;;;;;1999.90;999.90;;;15.50;99.90;;;;;;5035553;28;20037;-81
2022/10/11 03:04:09;;;;;;;1999.90;999.90;;;15.50;99.90;;;;;;5035451;28;20029;-80
2022/10/11 03:06:34;;;;;;;1999.90;999.90;;;15.50;99.90;;;;;;5042257;28;20498;-80
2022/10/11 03:09:00;;;;;;;1999.90;999.90;;;15.50;99.90;;;;;;5053014;28;20068;-72
2022/10/11 03:11:26;;;;;;;1999.90;999.90;;;15.40;99.90;;;;;;5050748;28;20099;-80
2022/10/11 03:13:51;;;;;;;1999.90;999.90;;;15.40;99.90;;;;;;5035312;28;20021;-72
2022/10/11 03:16:17;;;;;;;1999.90;999.90;;;15.40;99.90;;;;;;5034751;28;20049;-80
2022/10/11 03:18:42;;;;;;;1999.90;999.90;;;15.40;99.90;;;;;;5046167;28;20125;-80
2022/10/11 03:21:08;;;;;;;1999.90;999.90;;;15.40;99.90;;;;;;5054622;28;20423;-72
2022/10/11 03:23:34;;;;;;;1999.90;999.90;;;15.40;99.90;;;;;;5055066;28;20021;-79
2022/10/11 03:25:59;;;;;;;1999.90;999.90;;;15.40;99.90;;;;;;5055035;28;20063;-80
2022/10/11 03:28:25;;;;;;;1999.90;999.90;;;15.40;99.90;;;;;;5054834;28;20074;-80
2022/10/11 03:30:51;;;;;;;1999.90;999.90;;;15.40;99.90;;;;;;5054588;28;20052;-80
2022/10/11 03:33:17;;;;;;;1999.90;999.90;;;15.40;99.90;;;;;;5054989;28;20022;-79
2022/10/11 03:35:47;;;;;;;1999.90;999.90;;;15.40;99.90;;;;;;5054585;28;20052;-80
2022/10/11 03:38:15;;;;;;;1999.90;999.90;;;15.40;99.90;;;;;;5054870;28;20017;-80
2022/10/11 03:40:42;;;;;;;1999.90;999.90;;;15.40;99.90;;;;;;5054444;28;20108;-80
2022/10/11 03:43:08;;;;;;;1999.90;999.90;;;15.40;99.90;;;;;;5054816;28;20029;-79
2022/10/11 03:45:35;;;;;;;1999.90;999.90;;;15.40;99.90;;;;;;5054570;28;20087;-73
2022/10/11 03:48:01;;;;;;;1999.90;999.90;;;15.40;99.90;;;;;;5055242;28;20032;-80
2022/10/11 03:50:27;;;;;;;1999.90;999.90;;;15.40;99.90;;;;;;5054566;28;20048;-73
2022/10/11 03:52:53;;;;;;;1999.90;999.90;;;15.40;99.90;;;;;;5054206;28;20044;-81
2022/10/11 03:55:18;;;;;;;1999.90;999.90;;;15.40;99.90;;;;;;5054229;28;20495;-80
2022/10/11 03:57:44;;;;;;;1999.90;999.90;;;15.40;99.90;;;;;;5054672;28;20633;-72
2022/10/11 04:00:10;;;;;;;1999.90;999.90;;;15.40;99.90;;;;;;5054816;28;20033;-80
2022/10/11 04:02:35;;;;;;;1999.90;999.90;;;15.40;99.90;;;;;;5054265;28;20060;-80
2022/10/11 04:05:01;;;;;;;1999.90;999.90;;;15.40;99.90;;;;;;5053683;28;20057;-80
2022/10/11 04:07:27;;;;;;;1999.90;999.90;;;15.40;99.90;;;;;;5053734;28;20569;-80
2022/10/11 04:09:53;;;;;;;1999.90;999.90;;;15.40;99.90;;;;;;5044822;28;20519;-72
2022/10/11 04:12:19;;;;;;;1999.90;999.90;;;15.40;99.90;;;;;;5034065;28;20029;-72
2022/10/11 04:14:44;;;;;;;1999.90;999.90;;;15.40;99.90;;;;;;5034035;28;20037;-72
2022/10/11 04:17:10;;;;;;;1999.90;999.90;;;15.40;99.90;;;;;;5033087;28;20021;-80
2022/10/11 04:19:36;;;;;;;1999.90;999.90;;;15.40;99.90;;;;;;5052084;28;20424;-72
2022/10/11 04:22:04;;;;;;;1999.90;999.90;;;15.40;99.90;;;;;;5053997;28;20017;-81
2022/10/11 04:24:30;;;;;;;1999.90;999.90;;;15.40;99.90;;;;;;5053881;28;20059;-72
2022/10/11 04:26:56;;;;;;;1999.90;999.90;;;15.40;99.90;;;;;;5053930;28;20033;-73
2022/10/11 04:29:22;;;;;;;1999.90;999.90;;;15.40;99.90;;;;;;5053588;28;20029;-81
2022/10/11 04:31:48;;;;;;;1999.90;999.90;;;15.40;99.90;;;;;;5053789;28;20408;-81
2022/10/11 04:34:14;;;;;;;1999.90;999.90;;;15.30;99.90;;;;;;5053846;28;20029;-81
2022/10/11 04:36:40;;;;;;;1999.90;999.90;;;15.40;99.90;;;;;;5053392;28;20017;-72
2022/10/11 04:39:06;;;;;;;1999.90;999.90;;;15.40;99.90;;;;;;5053458;28;20025;-81
2022/10/11 04:41:33;;;;;;;1999.90;999.90;;;15.40;99.90;;;;;;5053189;28;20029;-82
2022/10/11 04:43:59;;;;;;;1999.90;999.90;;;15.40;99.90;;;;;;5053964;28;20421;-81
2022/10/11 04:46:25;;;;;;;1999.90;999.90;;;15.40;99.90;;;;;;5053347;28;20064;-81
2022/10/11 04:48:51;;;;;;;1999.90;999.90;;;15.40;99.90;;;;;;5053452;28;20063;-81
2022/10/11 04:51:17;;;;;;;1999.90;999.90;;;15.40;99.90;;;;;;5053202;28;20021;-73
2022/10/11 04:53:42;;;;;;;1999.90;999.90;;;15.40;99.90;;;;;;5053212;28;20025;-72
2022/10/11 04:56:13;;;;;;;1999.90;999.90;;;15.30;99.90;;;;;;5053732;28;20051;-72
2022/10/11 04:58:40;;;;;;;1999.90;999.90;;;15.40;99.90;;;;;;5052383;28;20090;-81
2022/10/11 05:01:06;;;;;;;1999.90;999.90;;;15.40;99.90;;;;;;5053177;28;20392;-80
2022/10/11 05:03:33;;;;;;;1999.90;999.90;;;15.40;99.90;;;;;;5053084;28;20025;-81
2022/10/11 05:05:58;;;;;;;1999.90;999.90;;;15.40;99.90;;;;;;5051178;28;20507;-81
2022/10/11 05:08:25;;;;;;;1999.90;999.90;;;15.40;99.90;;;;;;5053089;28;20066;-81
2022/10/11 05:10:55;;;;;;;1999.90;999.90;;;15.40;99.90;;;;;;5035284;28;20075;-80
2022/10/11 05:13:21;;;;;;;1999.90;999.90;;;15.50;99.90;;;;;;5051798;28;20033;-81
2022/10/11 05:15:46;;;;;;;1999.90;999.90;;;15.40;99.90;;;;;;5052719;28;20031;-72
2022/10/11 05:18:12;;;;;;;1999.90;999.90;;;15.40;99.90;;;;;;5051935;28;20400;-81
2022/10/11 05:20:38;;;;;;;1999.90;999.90;;;15.40;99.90;;;;;;5052310;28;20032;-73
2022/10/11 05:23:03;;;;;;;1999.90;999.90;;;15.40;99.90;;;;;;5052716;28;20021;-80
2022/10/11 05:25:29;;;;;;;1999.90;999.90;;;15.40;99.90;;;;;;5052224;28;20522;-72
2022/10/11 05:27:54;;;;;;;1999.90;999.90;;;15.40;99.90;;;;;;5053011;28;20063;-80
2022/10/11 05:30:20;;;;;;;1999.90;999.90;;;15.30;99.90;;;;;;5052077;28;20111;-81
2022/10/11 05:32:45;;;;;;;1999.90;999.90;;;15.30;99.90;;;;;;5050447;28;20032;-82
2022/10/11 05:35:11;;;;;;;1999.90;999.90;;;15.30;99.90;;;;;;5050422;28;20058;-81
2022/10/11 05:37:37;;;;;;;1999.90;999.90;;;15.30;99.90;;;;;;5041545;28;20120;-82
2022/10/11 05:40:03;;;;;;;1999.90;999.90;;;15.30;99.90;;;;;;5051672;28;20024;-82
2022/10/11 05:42:29;;;;;;;1999.90;999.90;;;15.30;99.90;;;;;;5051774;28;20039;-72
2022/10/11 05:44:54;;;;;;;1999.90;999.90;;;15.30;99.90;;;;;;5052077;28;20428;-72
2022/10/11 05:47:20;;;;;;;1999.90;999.90;;;15.30;99.90;;;;;;5044238;28;20086;-81
2022/10/11 05:49:45;;;;;;;1999.90;999.90;;;15.30;99.90;;;;;;5047191;28;20071;-82
2022/10/11 05:52:12;;;;;;;1999.90;999.90;;;15.30;99.90;;;;;;5050585;28;20031;-81
2022/10/11 05:54:37;;;;;;;1999.90;999.90;;;15.30;99.90;;;;;;5051203;28;20029;-73
2022/10/11 05:57:03;;;;;;;1999.90;999.90;;;15.30;99.90;;;;;;5051640;28;20036;-72
2022/10/11 05:59:29;;;;;;;1999.90;999.90;;;15.30;99.90;;;;;;5052021;28;20031;-81
2022/10/11 06:01:54;;;;;;;1999.90;999.90;;;15.30;99.90;;;;;;5051886;28;20029;-81
2022/10/11 06:04:20;;;;;;;1999.90;999.90;;;15.30;99.90;;;;;;5051693;28;20032;-73
2022/10/11 06:06:45;;;;;;;1999.90;999.90;;;15.30;99.90;;;;;;5050981;28;20036;-81
2022/10/11 06:09:11;;;;;;;1999.90;999.90;;;15.30;99.90;;;;;;5049223;28;20025;-72
2022/10/11 06:11:40;;;;;;;1999.90;999.90;;;15.20;99.90;;;;;;5038970;28;20037;-80
2022/10/11 06:14:05;;;;;;;1999.90;999.90;;;15.30;99.90;;;;;;5043731;28;20036;-80
2022/10/11 06:16:31;;;;;;;1999.90;999.90;;;15.30;99.90;;;;;;5047034;28;20029;-72
2022/10/11 06:18:56;;;;;;;1999.90;999.90;;;15.20;99.90;;;;;;5049992;28;20052;-81
2022/10/11 06:21:23;;;;;;;1999.90;999.90;;;15.30;99.90;;;;;;5044746;28;20053;-72
2022/10/11 06:23:49;;;;;;;1999.90;999.90;;;15.30;99.90;;;;;;5049137;28;20040;-72
2022/10/11 06:26:15;;;;;;;1999.90;999.90;;;15.20;99.90;;;;;;5052732;28;20370;-72
2022/10/11 06:28:41;;;;;;;1999.90;999.90;;;15.20;99.90;;;;;;5048879;28;20495;-81
2022/10/11 06:31:07;;;;;;;1999.90;999.90;;;15.20;99.90;;;;;;5053882;28;20083;-79
2022/10/11 06:33:33;;;;;;;1999.90;999.90;;;15.20;99.90;;;;;;5052236;28;20025;-80
2022/10/11 06:36:01;;;;;;;1999.90;999.90;;;15.20;99.90;;;;;;5051938;28;20040;-72
2022/10/11 06:38:27;;;;;;;1999.90;999.90;;;15.20;99.90;;;;;;5055044;28;20100;-81
2022/10/11 06:40:53;;;;;;;1999.90;999.90;;;15.20;99.90;;;;;;5056040;28;20151;-81
2022/10/11 06:43:19;;;;;;;1999.90;999.90;;;15.20;99.90;;;;;;5054703;28;20021;-72
2022/10/11 06:45:44;;;;;;;1999.90;999.90;;;15.10;99.90;;;;;;5054116;28;20025;-72
2022/10/11 06:48:10;;;;;;;1999.90;999.90;;;15.20;99.90;;;;;;5049315;28;20021;-73
2022/10/11 06:50:39;;;;;;;1999.90;999.90;;;15.20;99.90;;;;;;5045257;28;20025;-73
2022/10/11 06:53:07;;;;;;;1999.90;999.90;;;15.20;99.90;;;;;;5050345;28;20044;-71
2022/10/11 06:55:33;;;;;;;1999.90;999.90;;;15.10;99.90;;;;;;5051807;28;20037;-71
2022/10/11 06:57:59;;;;;;;1999.90;999.90;;;15.10;99.90;;;;;;5054468;28;20036;-78
2022/10/11 07:00:24;;;;;;;1999.90;999.90;;;15.10;99.90;;;;;;5049579;28;20021;-71
2022/10/11 07:02:50;;;;;;;1999.90;999.90;;;15.10;99.90;;;;;;5053971;28;20025;-72
2022/10/11 07:05:16;;;;;;;1999.90;999.90;;;15.10;99.90;;;;;;5053261;28;20493;-80
2022/10/11 07:07:42;;;;;;;1999.90;999.90;;;15.10;99.90;;;;;;5053157;28;20036;-80
2022/10/11 07:10:08;;;;;;;1999.90;999.90;;;15.10;99.90;;;;;;5054180;28;20025;-79
2022/10/11 07:12:34;;;;;;;1999.90;999.90;;;15.10;99.90;;;;;;5054127;28;20107;-80
2022/10/11 07:14:59;;;;;;;1999.90;999.90;;;15.10;99.90;;;;;;5054042;28;20472;-72
2022/10/11 07:17:25;;;;;;;1999.90;999.90;;;15.20;99.90;;;;;;5053491;28;20036;-77
2022/10/11 07:19:50;;;;;;;1999.90;999.90;;;15.20;99.90;;;;;;5051177;28;20040;-78
2022/10/11 07:22:16;;;;;;;1999.90;999.90;;;15.20;99.90;;;;;;5054139;28;20018;-71
2022/10/11 07:24:42;;;;;;;1999.90;999.90;;;15.20;99.90;;;;;;5053386;28;20029;-78
2022/10/11 07:27:07;;;;;;;1999.90;999.90;;;15.20;99.90;;;;;;5053365;28;20166;-72
2022/10/11 07:29:33;;;;;;;1999.90;999.90;;;15.20;99.90;;;;;;5054156;28;20571;-72
2022/10/11 07:31:58;;;;;;;1999.90;999.90;;;15.20;99.90;;;;;;5054147;28;20041;-79
2022/10/11 07:34:24;;;;;;;1999.90;999.90;;;15.30;99.90;;;;;;5053799;28;20040;-79
2022/10/11 07:36:50;;;;;;;1999.90;999.90;;;15.30;99.90;;;;;;5042258;28;20029;-81
2022/10/11 07:39:15;;;;;;;1999.90;999.90;;;15.30;99.90;;;;;;5054158;28;20028;-72
2022/10/11 07:41:41;;;;;;;1999.90;999.90;;;15.40;99.90;;;;;;5052151;28;20490;-73
2022/10/11 07:44:07;;;;;;;1999.90;999.90;;;15.40;99.90;;;;;;5052678;28;20040;-78
2022/10/11 07:46:32;;;;;;;1999.90;999.90;;;15.40;99.90;;;;;;5052705;28;20101;-79
2022/10/11 07:48:58;;;;;;;1999.90;999.90;;;15.50;99.90;;;;;;5053407;28;20029;-79
2022/10/11 07:51:24;;;;;;;1999.90;999.90;;;15.50;99.90;;;;;;5053194;28;20438;-78
2022/10/11 07:53:54;;;;;;;1999.90;999.90;;;15.60;99.90;;;;;;5051840;28;20021;-72
2022/10/11 07:56:23;;;;;;;1999.90;999.90;;;15.60;99.90;;;;;;5052377;28;20090;-78
2022/10/11 07:58:56;;;;;;;1999.90;999.90;;;15.70;99.90;;;;;;5056278;28;20472;-77
2022/10/11 08:01:23;;;;;;;1999.90;999.90;;;15.70;99.90;;;;;;5061131;28;20120;-77
2022/10/11 08:03:49;;;;;;;1999.90;999.90;;;15.70;99.90;;;;;;5066968;28;20021;-71
2022/10/11 08:06:17;;;;;;;1999.90;999.90;;;15.90;99.90;;;;;;5054286;28;20029;-72
2022/10/11 08:08:43;;;;;;;1999.90;999.90;;;16.00;99.90;;;;;;5053012;28;20016;-77
2022/10/11 08:11:09;;;;;;;1999.90;999.90;;;16.00;99.90;;;;;;5051959;28;20033;-76
2022/10/11 08:13:35;;;;;;;1999.90;999.90;;;16.10;99.90;;;;;;5050841;28;20035;-77
2022/10/11 08:16:07;;;;;;;1999.90;999.90;;;16.20;99.90;;;;;;5052840;28;20033;-71
2022/10/11 08:18:33;;;;;;;1999.90;999.90;;;16.30;99.90;;;;;;5052219;28;20427;-77
2022/10/11 08:20:58;;;;;;;1999.90;999.90;;;16.40;99.90;;;;;;5051749;28;20107;-77
2022/10/11 08:23:24;;;;;;;1999.90;999.90;;;16.50;99.90;;;;;;5052470;28;20029;-77
2022/10/11 08:25:56;;;;;;;1999.90;999.90;;;16.50;99.90;;;;;;5053035;28;20079;-77
2022/10/11 08:28:22;;;;;;;1999.90;999.90;;;16.60;99.90;;;;;;5052939;28;20068;-77
2022/10/11 08:30:50;;;;;;;1999.90;999.90;;;16.70;99.90;;;;;;5052671;28;20598;-71
2022/10/11 08:33:17;;;;;;;1999.90;999.90;;;16.80;99.90;;;;;;5052289;28;20024;-71
2022/10/11 08:35:43;;;;;;;1999.90;999.90;;;16.80;99.90;;;;;;5065264;28;20060;-78
2022/10/11 08:38:08;;;;;;;1999.90;999.90;;;16.90;99.90;;;;;;5049165;28;20109;-79
2022/10/11 08:40:34;;;;;;;1999.90;999.90;;;16.90;99.90;;;;;;5051741;28;20082;-80
2022/10/11 08:43:05;;;;;;;1999.90;999.90;;;17.10;99.90;;;;;;5052600;28;20114;-79
2022/10/11 08:45:44;;;;;;;1999.90;999.90;;;17.10;99.90;;;;;;5051388;28;20033;-73
2022/10/11 08:48:17;;;;;;;1999.90;999.90;;;17.20;99.90;;;;;;5049484;28;20029;-79
2022/10/11 08:50:46;;;;;;;1999.90;999.90;;;17.40;99.90;;;;;;5052239;28;20102;-80
2022/10/11 08:53:22;;;;;;;1999.90;999.90;;;17.70;99.90;;;;;;5052654;28;20396;-78
2022/10/11 08:55:51;;;;;;;1999.90;999.90;;;17.90;99.90;;;;;;5052110;28;20029;-80
2022/10/11 08:58:27;;;;;;;1999.90;999.90;;;18.10;99.90;;;;;;5052241;28;20479;-73
2022/10/11 09:00:56;;;;;;;1999.90;999.90;;;18.30;99.90;;;;;;5052157;28;20021;-81
2022/10/11 09:03:28;;;;;;;1999.90;999.90;;;18.40;99.90;;;;;;5052275;28;20023;-80
2022/10/11 09:06:11;;;;;;;1999.90;999.90;;;18.50;99.90;;;;;;5049643;28;20029;-81
2022/10/11 09:08:51;;;;;;;1999.90;999.90;;;18.60;99.90;;;;;;5050433;28;20396;-80
2022/10/11 09:11:31;;;;;;;1999.90;999.90;;;18.60;99.90;;;;;;5042127;28;20026;-73
2022/10/11 09:14:21;;;;;;;1999.90;999.90;;;18.40;99.90;;;;;;5046882;28;20090;-73
2022/10/11 09:16:53;;;;;;;1999.90;999.90;;;18.30;99.90;;;;;;5051839;28;20063;-80
2022/10/11 09:19:24;;;;;;;1999.90;999.90;;;18.40;99.90;;;;;;5051543;28;20045;-80
2022/10/11 09:22:16;;;;;;;1999.90;999.90;;;18.20;99.90;;;;;;5045238;28;20032;-81
2022/10/11 09:25:02;;;;;;;1999.90;999.90;;;18.50;99.90;;;;;;5051473;28;20118;-73
2022/10/11 09:27:53;;;;;;;1999.90;999.90;;;18.40;99.90;;;;;;5050755;28;20021;-80
2022/10/11 09:30:19;;;;;;;1999.90;999.90;;;18.70;99.90;;;;;;5051495;28;20088;-81
2022/10/11 09:32:52;;;;;;;1999.90;999.90;;;18.50;99.90;;;;;;5051804;28;20476;-81
2022/10/11 09:35:21;;;;;;;1999.90;999.90;;;18.20;99.90;;;;;;5048296;28;20157;-80
2022/10/11 09:38:16;;;;;;;1999.90;999.90;;;18.10;99.90;;;;;;5049081;28;20464;-73
2022/10/11 09:41:06;;;;;;;1999.90;999.90;;;18.10;99.90;;;;;;5056340;28;20098;-81
2022/10/11 09:43:32;;;;;;;1999.90;999.90;;;18.10;99.90;;;;;;5071101;28;20044;-80
2022/10/11 09:45:58;;;;;;;1999.90;999.90;;;18.10;99.90;;;;;;5069603;28;20484;-80
2022/10/11 09:48:31;;;;;;;1999.90;999.90;;;18.20;99.90;;;;;;5051589;28;20029;-80
2022/10/11 09:51:27;;;;;;;1999.90;999.90;;;18.30;99.90;;;;;;5050744;28;20060;-73
2022/10/11 09:54:04;;;;;;;1999.90;999.90;;;18.50;99.90;;;;;;5040618;28;20033;-81
2022/10/11 09:56:32;;;;;;;1999.90;999.90;;;18.70;99.90;;;;;;5051193;28;20029;-80
2022/10/11 09:59:30;;;;;;;1999.90;999.90;;;18.70;99.90;;;;;;5048272;28;20049;-80
2022/10/11 10:02:20;;;;;;;1999.90;999.90;;;18.80;99.90;;;;;;5050551;28;20519;-73
2022/10/11 10:05:09;;;;;;;1999.90;999.90;;;19.00;99.90;;;;;;5048181;28;20041;-73
2022/10/11 10:07:39;;;;;;;1999.90;999.90;;;19.00;99.90;;;;;;5045685;28;20523;-73
2022/10/11 10:10:29;;;;;;;1999.90;999.90;;;19.00;99.90;;;;;;5050049;28;20025;-81
2022/10/11 10:12:58;;;;;;;1999.90;999.90;;;18.90;99.90;;;;;;5038663;28;20559;-81
2022/10/11 10:15:28;;;;;;;1999.90;999.90;;;19.00;99.90;;;;;;5049911;28;20021;-81
2022/10/11 10:17:54;;;;;;;1999.90;999.90;;;18.80;99.90;;;;;;5043449;28;20598;-73
2022/10/11 10:20:26;;;;;;;1999.90;999.90;;;18.70;99.90;;;;;;5048163;28;20099;-80
2022/10/11 10:22:52;;;;;;;1999.90;999.90;;;18.70;99.90;;;;;;5045745;28;20546;-81
2022/10/11 10:25:31;;;;;;;1999.90;999.90;;;18.60;99.90;;;;;;5048048;28;20071;-80
2022/10/11 10:28:00;;;;;;;1999.90;999.90;;;18.50;99.90;;;;;;5049372;28;20037;-73
2022/10/11 10:30:26;;;;;;;1999.90;999.90;;;18.40;99.90;;;;;;5050789;28;20048;-72
2022/10/11 10:32:58;;;;;;;1999.90;999.90;;;18.40;99.90;;;;;;5050877;28;20033;-73
2022/10/11 10:35:24;;;;;;;1999.90;999.90;;;18.40;99.90;;;;;;5050118;28;20021;-80
2022/10/11 10:38:02;;;;;;;1999.90;999.90;;;18.30;99.90;;;;;;5046404;28;20029;-80
2022/10/11 10:40:42;;;;;;;1999.90;999.90;;;18.60;99.90;;;;;;5048576;28;20017;-81
2022/10/11 10:43:14;;;;;;;1999.90;999.90;;;18.90;99.90;;;;;;5049032;28;20517;-73
2022/10/11 10:45:57;;;;;;;1999.90;999.90;;;18.90;99.90;;;;;;5048674;28;20052;-81
2022/10/11 10:48:47;;;;;;;1999.90;999.90;;;19.10;99.90;;;;;;5048908;28;20369;-81
2022/10/11 10:51:17;;;;;;;1999.90;999.90;;;19.20;99.90;;;;;;5045802;28;20021;-80
2022/10/11 10:53:58;;;;;;;1999.90;999.90;;;19.30;99.90;;;;;;5048410;28;20078;-73
2022/10/11 10:56:31;;;;;;;1999.90;999.90;;;19.50;99.90;;;;;;5043460;28;20057;-80
2022/10/11 10:58:56;;;;;;;1999.90;999.90;;;19.50;99.90;;;;;;5039867;28;20033;-79
2022/10/11 11:01:44;;;;;;;1999.90;999.90;;;19.30;99.90;;;;;;5047715;28;20032;-76
2022/10/11 11:04:32;;;;;;;1999.90;999.90;;;19.50;99.90;;;;;;5047710;28;20047;-79
2022/10/11 11:07:19;;;;;;;1999.90;999.90;;;19.70;99.90;;;;;;5050221;28;20017;-73
2022/10/11 11:09:57;;;;;;;1999.90;999.90;;;19.60;99.90;;;;;;5047663;28;20508;-73
2022/10/11 11:12:44;;;;;;;1999.90;999.90;;;19.70;99.90;;;;;;5052173;28;20159;-81
2022/10/11 11:15:32;;;;;;;1999.90;999.90;;;19.60;99.90;;;;;;5060708;28;20043;-79
2022/10/11 11:18:27;;;;;;;1999.90;999.90;;;19.80;99.90;;;;;;5056857;28;20048;-80
2022/10/11 11:20:52;;;;;;;1999.90;999.90;;;20.10;99.90;;;;;;5041167;28;20444;-73
2022/10/11 11:23:27;;;;;;;1999.90;999.90;;;20.20;99.90;;;;;;5066944;28;20021;-72
2022/10/11 11:26:03;;;;;;;1999.90;999.90;;;20.40;99.90;;;;;;5053283;28;20041;-79
2022/10/11 11:28:51;;;;;;;1999.90;999.90;;;20.60;99.90;;;;;;5071471;28;20081;-80
2022/10/11 11:31:35;;;;;;;1999.90;999.90;;;20.80;99.90;;;;;;5048894;28;20494;-80
2022/10/11 11:34:13;;;;;;;1999.90;999.90;;;21.20;99.90;;;;;;5051374;28;20033;-81
2022/10/11 11:36:55;;;;;;;1999.90;999.90;;;21.20;99.90;;;;;;5051644;28;20432;-80
2022/10/11 11:39:29;;;;;;;1999.90;999.90;;;21.40;99.90;;;;;;5051944;28;20499;-80
2022/10/11 11:42:35;;;;;;;1999.90;999.90;;;21.60;99.90;;;;;;5050223;28;20036;-81
2022/10/11 11:45:12;;;;;;;1999.90;999.90;;;21.60;99.90;;;;;;5029731;28;20089;-81
2022/10/11 11:47:42;;;;;;;1999.90;999.90;;;21.80;99.90;;;;;;5052444;28;20025;-73
2022/10/11 11:50:14;;;;;;;1999.90;999.90;;;22.30;99.90;;;;;;5052442;28;20113;-80
2022/10/11 11:52:44;;;;;;;1999.90;999.90;;;22.50;99.90;;;;;;5051958;28;20096;-73
2022/10/11 11:55:20;;;;;;;1999.90;999.90;;;22.70;99.90;;;;;;5053004;28;20032;-78
2022/10/11 11:57:54;;;;;;;1999.90;999.90;;;22.30;99.90;;;;;;5043524;28;20017;-74
2022/10/11 12:00:27;;;;;;;1999.90;999.90;;;22.30;99.90;;;;;;5058495;28;20029;-79
2022/10/11 12:03:33;;;;;;;1999.90;999.90;;;21.90;99.90;;;;;;5054472;28;20554;-81
2022/10/11 12:06:11;;;;;;;1999.90;999.90;;;22.00;99.90;;;;;;5037165;28;20051;-73
2022/10/11 12:08:37;;;;;;;1999.90;999.90;;;22.00;99.90;;;;;;5052512;28;20020;-80
2022/10/11 12:11:03;;;;;;;1999.90;999.90;;;22.00;99.90;;;;;;5049277;28;20481;-81
2022/10/11 12:13:37;;;;;;;1999.90;999.90;;;21.90;99.90;;;;;;5052356;28;20727;-73
2022/10/11 12:16:03;;;;;;;1999.90;999.90;;;21.80;99.90;;;;;;5051371;28;20438;-82